createdAt,value
2018-09-25T00:03:14.377Z,97320.00
2018-09-25T00:08:48.975Z,97334.00
2018-09-25T00:14:24.391Z,97336.00
2018-09-25T00:19:59.904Z,97328.00
2018-09-25T00:25:34.448Z,97315.00
2018-09-25T00:31:08.787Z,97321.00
2018-09-25T00:36:43.333Z,97327.00
2018-09-25T00:42:18.363Z,97334.00
2018-09-25T00:47:53.231Z,97339.00
2018-09-25T00:53:27.714Z,97344.00
2018-09-25T00:59:02.087Z,97338.00
2018-09-25T01:04:36.454Z,97348.00
2018-09-25T01:10:11.134Z,97340.00
2018-09-25T01:15:45.456Z,97337.00
2018-09-25T01:21:19.831Z,97336.00
2018-09-25T01:26:54.142Z,97339.00
2018-09-25T01:32:30.104Z,97350.00
2018-09-25T01:38:05.205Z,97354.00
2018-09-25T01:43:40.600Z,97351.00
2018-09-25T01:49:19.035Z,97348.00
2018-09-25T01:54:53.595Z,97331.00
2018-09-25T02:00:30.213Z,97335.00
2018-09-25T02:06:04.543Z,97348.00
2018-09-25T02:11:39.017Z,97354.00
2018-09-25T02:17:13.516Z,97353.00
2018-09-25T02:22:48.107Z,97350.00
2018-09-25T02:28:22.539Z,97356.00
2018-09-25T02:33:56.899Z,97357.00
2018-09-25T02:39:32.281Z,97364.00
2018-09-25T02:45:06.768Z,97359.00
2018-09-25T02:50:41.212Z,97358.00
2018-09-25T02:56:15.746Z,97358.00
2018-09-25T03:01:50.400Z,97370.00
2018-09-25T03:07:24.943Z,97371.00
2018-09-25T03:12:59.324Z,97371.00
2018-09-25T03:18:33.968Z,97364.00
2018-09-25T03:24:08.492Z,97371.00
2018-09-25T03:29:42.811Z,97377.00
2018-09-25T03:35:20.580Z,97381.00
2018-09-25T03:40:54.984Z,97389.00
2018-09-25T03:46:29.449Z,97386.00
2018-09-25T03:52:04.012Z,97391.00
2018-09-25T03:57:38.507Z,97391.00
2018-09-25T04:03:15.132Z,97391.00
2018-09-25T04:08:49.719Z,97389.00
2018-09-25T04:14:24.041Z,97396.00
2018-09-25T04:19:58.385Z,97393.00
2018-09-25T04:25:32.962Z,97387.00
2018-09-25T04:31:07.629Z,97391.00
2018-09-25T04:36:41.971Z,97391.00
2018-09-25T04:42:16.476Z,97401.00
2018-09-25T04:47:51.128Z,97399.00
2018-09-25T04:53:25.504Z,97406.00
2018-09-25T04:59:00.015Z,97416.00
2018-09-25T05:04:34.615Z,97414.00
2018-09-25T05:10:09.087Z,97414.00
2018-09-25T05:15:43.437Z,97426.00
2018-09-25T05:21:18.272Z,97419.00
2018-09-25T05:26:52.682Z,97426.00
2018-09-25T05:32:27.217Z,97435.00
2018-09-25T05:38:01.736Z,97432.00
2018-09-25T05:43:36.143Z,97446.00
2018-09-25T05:49:11.556Z,97454.00
2018-09-25T05:54:46.180Z,97455.00
2018-09-25T06:00:20.747Z,97474.00
2018-09-25T06:05:55.068Z,97468.00
2018-09-25T06:11:29.705Z,97483.00
2018-09-25T06:17:04.104Z,97484.00
2018-09-25T06:22:38.388Z,97490.00
2018-09-25T06:28:12.880Z,97494.00
2018-09-25T06:33:47.475Z,97495.00
2018-09-25T06:39:21.917Z,97495.00
2018-09-25T06:44:56.329Z,97511.00
2018-09-25T06:50:30.708Z,97516.00
2018-09-25T06:56:05.107Z,97519.00
2018-09-25T07:01:39.465Z,97520.00
2018-09-25T07:07:14.881Z,97533.00
2018-09-25T07:12:49.444Z,97550.00
2018-09-25T07:18:23.966Z,97547.00
2018-09-25T07:23:58.291Z,97557.00
2018-09-25T07:29:32.856Z,97552.00
2018-09-25T07:35:07.162Z,97572.00
2018-09-25T07:40:41.724Z,97576.00
2018-09-25T07:46:16.164Z,97577.00
2018-09-25T07:51:50.626Z,97586.00
2018-09-25T07:57:25.013Z,97599.00
2018-09-25T08:02:59.441Z,97604.00
2018-09-25T08:08:33.854Z,97610.00
2018-09-25T08:14:08.268Z,97604.00
2018-09-25T08:19:42.606Z,97602.00
2018-09-25T08:25:17.183Z,97602.00
2018-09-25T08:30:51.719Z,97617.00
2018-09-25T08:36:25.983Z,97607.00
2018-09-25T08:42:00.328Z,97617.00
2018-09-25T08:47:34.735Z,97619.00
2018-09-25T08:53:09.120Z,97619.00
2018-09-25T08:58:43.483Z,97625.00
2018-09-25T09:04:18.039Z,97615.00
2018-09-25T09:09:52.451Z,97626.00
2018-09-25T09:15:27.036Z,97619.00
2018-09-25T09:21:01.459Z,97622.00
2018-09-25T09:26:35.700Z,97626.00
2018-09-25T09:32:10.256Z,97623.00
2018-09-25T09:37:44.670Z,97626.00
2018-09-25T09:43:19.125Z,97629.00
2018-09-25T09:48:53.567Z,97622.00
2018-09-25T09:54:27.957Z,97624.00
2018-09-25T10:00:02.381Z,97624.00
2018-09-25T10:05:36.710Z,97612.00
2018-09-25T10:11:11.205Z,97611.00
2018-09-25T10:16:45.683Z,97613.00
2018-09-25T10:22:20.256Z,97596.00
2018-09-25T10:27:54.719Z,97595.00
2018-09-25T10:33:29.283Z,97598.00
2018-09-25T10:39:03.700Z,97601.00
2018-09-25T10:44:38.034Z,97595.00
2018-09-25T10:50:12.665Z,97606.00
2018-09-25T10:55:47.399Z,97593.00
2018-09-25T11:01:21.784Z,97589.00
2018-09-25T11:06:56.199Z,97592.00
2018-09-25T11:12:30.775Z,97593.00
2018-09-25T11:18:05.359Z,97605.00
2018-09-25T11:23:39.849Z,97602.00
2018-09-25T11:29:14.379Z,97587.00
2018-09-25T11:34:49.020Z,97600.00
2018-09-25T11:40:23.531Z,97582.00
2018-09-25T11:45:57.922Z,97580.00
2018-09-25T11:51:32.245Z,97566.00
2018-09-25T11:57:06.619Z,97568.00
2018-09-25T12:02:41.208Z,97558.00
2018-09-25T12:08:15.861Z,97552.00
2018-09-25T12:13:50.403Z,97554.00
2018-09-25T12:19:24.752Z,97556.00
2018-09-25T12:24:59.036Z,97548.00
2018-09-25T12:30:33.547Z,97545.00
2018-09-25T12:36:07.965Z,97536.00
2018-09-25T12:41:42.340Z,97531.00
2018-09-25T12:47:16.681Z,97533.00
2018-09-25T12:52:51.082Z,97532.00
2018-09-25T12:58:25.781Z,97541.00
2018-09-25T13:04:00.305Z,97532.00
2018-09-25T13:09:34.626Z,97535.00
2018-09-25T13:15:09.031Z,97530.00
2018-09-25T13:20:43.428Z,97536.00
2018-09-25T13:26:18.090Z,97539.00
2018-09-25T13:31:52.597Z,97532.00
2018-09-25T13:37:27.051Z,97515.00
2018-09-25T13:43:01.869Z,97530.00
2018-09-25T13:48:36.503Z,97524.00
2018-09-25T13:54:11.045Z,97498.00
2018-09-25T13:59:45.653Z,97480.00
2018-09-25T14:05:21.116Z,97477.00
2018-09-25T14:10:56.657Z,97478.00
2018-09-25T14:16:31.020Z,97477.00
2018-09-25T14:22:05.564Z,97452.00
2018-09-25T14:27:40.554Z,97455.00
2018-09-25T14:33:15.340Z,97471.00
2018-09-25T14:38:49.958Z,97476.00
2018-09-25T14:44:28.243Z,97479.00
2018-09-25T14:50:02.966Z,97474.00
2018-09-25T14:55:37.486Z,97485.00
2018-09-25T15:01:12.384Z,97483.00
2018-09-25T15:06:48.776Z,97523.00
2018-09-25T15:12:23.379Z,97530.00
2018-09-25T15:17:57.914Z,97526.00
2018-09-25T15:23:32.608Z,97527.00
2018-09-25T15:29:06.921Z,97521.00
2018-09-25T15:34:45.091Z,97518.00
2018-09-25T15:40:19.994Z,97513.00
2018-09-25T15:45:58.274Z,97511.00
2018-09-25T15:51:32.775Z,97519.00
2018-09-25T15:57:07.178Z,97520.00
2018-09-25T16:02:41.929Z,97514.00
2018-09-25T16:08:16.756Z,97524.00
2018-09-25T16:13:51.164Z,97522.00
2018-09-25T16:19:25.779Z,97525.00
2018-09-25T16:25:00.189Z,97529.00
2018-09-25T16:30:35.581Z,97536.00
2018-09-25T16:36:10.183Z,97533.00
2018-09-25T16:41:44.725Z,97514.00
2018-09-25T16:47:19.533Z,97528.00
2018-09-25T16:53:01.459Z,97522.00
2018-09-25T16:58:35.915Z,97522.00
2018-09-25T17:04:11.297Z,97529.00
2018-09-25T17:09:46.946Z,97533.00
2018-09-25T17:15:21.483Z,97538.00
2018-09-25T17:20:56.033Z,97554.00
2018-09-25T17:26:30.632Z,97547.00
2018-09-25T17:32:05.099Z,97562.00
2018-09-25T17:37:40.311Z,97560.00
2018-09-25T17:43:15.045Z,97566.00
2018-09-25T17:48:49.334Z,97565.00
2018-09-25T17:54:24.029Z,97555.00
2018-09-25T17:59:58.580Z,97552.00
2018-09-25T18:05:33.034Z,97556.00
2018-09-25T18:11:07.616Z,97558.00
2018-09-25T18:16:42.030Z,97556.00
2018-09-25T18:22:18.957Z,97566.00
2018-09-25T18:27:53.657Z,97563.00
2018-09-25T18:33:28.063Z,97568.00
2018-09-25T18:39:02.551Z,97571.00
2018-09-25T18:44:37.018Z,97578.00
2018-09-25T18:50:12.643Z,97569.00
2018-09-25T18:55:47.201Z,97585.00
2018-09-25T19:01:26.316Z,97587.00
2018-09-25T19:07:00.735Z,97587.00
2018-09-25T19:12:35.257Z,97586.00
2018-09-25T19:18:10.854Z,97604.00
2018-09-25T19:23:47.462Z,97598.00
2018-09-25T19:29:22.050Z,97605.00
2018-09-25T19:34:56.410Z,97605.00
2018-09-25T19:40:31.823Z,97613.00
2018-09-25T19:46:06.305Z,97612.00
2018-09-25T19:51:41.003Z,97624.00
2018-09-25T19:57:15.722Z,97621.00
2018-09-25T20:02:50.512Z,97617.00
2018-09-25T20:08:25.143Z,97614.00
2018-09-25T20:14:01.685Z,97614.00
2018-09-25T20:19:36.260Z,97605.00
2018-09-25T20:25:10.813Z,97609.00
2018-09-25T20:30:45.313Z,97624.00
2018-09-25T20:36:20.000Z,97616.00
2018-09-25T20:41:54.402Z,97623.00
2018-09-25T20:47:28.695Z,97617.00
2018-09-25T20:53:03.272Z,97616.00
2018-09-25T20:58:37.789Z,97618.00
2018-09-25T21:04:12.361Z,97621.00
2018-09-25T21:09:47.071Z,97613.00
2018-09-25T21:15:21.493Z,97624.00
2018-09-25T21:20:55.889Z,97626.00
2018-09-25T21:26:31.237Z,97615.00
2018-09-25T21:32:06.819Z,97608.00
2018-09-25T21:37:49.412Z,97609.00
2018-09-25T21:43:24.124Z,97616.00
2018-09-25T21:48:58.724Z,97605.00
2018-09-25T21:54:33.347Z,97592.00
2018-09-25T22:00:11.013Z,97577.00
2018-09-25T22:05:45.633Z,97571.00
2018-09-25T22:11:20.105Z,97580.00
2018-09-25T22:16:54.946Z,97579.00
2018-09-25T22:22:29.229Z,97567.00
2018-09-25T22:28:03.496Z,97559.00
2018-09-25T22:33:40.021Z,97550.00
2018-09-25T22:39:15.892Z,97554.00
2018-09-25T22:44:50.449Z,97544.00
2018-09-25T22:50:24.829Z,97539.00
2018-09-25T22:55:59.243Z,97529.00
2018-09-25T23:01:33.741Z,97526.00
2018-09-25T23:07:08.326Z,97519.00
2018-09-25T23:12:42.847Z,97519.00
2018-09-25T23:18:17.566Z,97516.00
2018-09-25T23:23:52.289Z,97499.00
2018-09-25T23:29:30.665Z,97495.00
2018-09-25T23:35:05.056Z,97494.00
2018-09-25T23:40:42.451Z,97493.00
2018-09-25T23:46:35.136Z,97489.00
2018-09-25T23:52:14.715Z,97489.00
2018-09-25T23:57:49.068Z,97471.00
